Time;durP1;ratioP1;P1;durP2;ratioP2;P2;SDS_P1;SDS_P2;PMS_P1;PMS_P2;Temp;Humidity;BMP_temperature;BMP_pressure;BME280_temperature;BME280_humidity;BME280_pressure;Samples;Min_cycle;Max_cycle;Signal;HPM_P1;HPM_P2
2022/01/12 00:02:12;;;;;;;2.00;1.90;;;5.50;99.90;;;5.66;64.46;102608.25;4972696;28;20635;-63
2022/01/12 00:04:40;;;;;;;2.63;2.43;;;5.50;99.90;;;5.63;64.18;102610.88;4970975;28;20650;-62
2022/01/12 00:07:08;;;;;;;3.13;2.87;;;5.50;99.90;;;5.64;64.27;102612.59;4971612;28;20616;-63
2022/01/12 00:09:35;;;;;;;2.10;2.00;;;5.50;99.90;;;5.61;64.46;102602.28;4971466;28;20638;-63
2022/01/12 00:12:02;;;;;;;2.42;2.22;;;5.40;99.90;;;5.59;64.17;102593.69;4986019;28;20627;-60
2022/01/12 00:14:29;;;;;;;2.00;1.90;;;5.40;99.90;;;5.58;64.40;102591.16;4971560;28;20665;-61
2022/01/12 00:16:59;;;;;;;3.30;2.30;;;5.40;99.90;;;5.55;64.30;102601.56;4969552;28;20681;-63
2022/01/12 00:19:28;;;;;;;2.17;2.00;;;5.40;99.90;;;5.59;63.42;102603.19;4969682;28;20738;-63
2022/01/12 00:21:56;;;;;;;2.20;1.80;;;5.40;99.90;;;5.60;64.12;102610.09;4970782;28;21232;-61
2022/01/12 00:24:28;;;;;;;2.33;2.23;;;5.40;99.90;;;5.51;64.24;102604.19;4971593;28;20718;-61
2022/01/12 00:35:30;;;;;;;2.03;1.90;;;5.30;99.90;;;5.46;64.32;102600.00;4947256;29;20672;-62
2022/01/12 00:37:57;;;;;;;1.83;1.73;;;5.30;99.90;;;5.38;64.40;102602.75;4948798;28;20264;-61
2022/01/12 00:40:24;;;;;;;2.17;1.97;;;5.20;99.90;;;5.43;65.09;102597.50;4960263;28;20686;-62
2022/01/12 00:42:52;;;;;;;3.47;2.00;;;5.30;99.90;;;5.44;64.98;102599.19;4986871;28;21178;-62
2022/01/12 00:45:20;;;;;;;2.80;2.40;;;5.30;99.90;;;5.45;64.79;102606.06;4971522;28;20211;-61
2022/01/12 00:47:48;;;;;;;1.97;1.80;;;5.30;99.90;;;5.44;64.73;102612.13;4971524;28;20234;-61
2022/01/12 00:50:15;;;;;;;3.60;3.10;;;5.30;99.90;;;5.42;65.46;102601.81;4970598;28;20639;-62
2022/01/12 00:52:42;;;;;;;2.73;2.40;;;5.20;99.90;;;5.40;65.55;102606.16;4971688;28;20627;-63
2022/01/12 00:55:09;;;;;;;2.60;2.33;;;5.20;99.90;;;5.40;65.77;102603.56;4971263;28;20659;-60
2022/01/12 00:57:36;;;;;;;2.77;2.30;;;5.20;99.90;;;5.42;65.80;102617.34;4970873;28;20230;-61
2022/01/12 01:00:06;;;;;;;3.50;2.90;;;5.30;99.90;;;5.42;66.69;102619.06;4971697;28;20626;-62
2022/01/12 01:02:33;;;;;;;3.42;2.67;;;5.30;99.90;;;5.40;66.62;102618.25;4970943;28;21348;-61
2022/01/12 01:05:01;;;;;;;2.43;2.27;;;5.20;99.90;;;5.42;66.27;102624.25;4968561;28;20815;-61
2022/01/12 01:07:28;;;;;;;2.30;2.20;;;5.30;99.90;;;5.37;66.38;102626.91;4970134;28;20659;-62
2022/01/12 01:10:03;;;;;;;2.25;2.00;;;5.20;99.90;;;5.30;65.89;102634.84;4969580;28;20764;-62
2022/01/12 01:12:33;;;;;;;2.85;2.33;;;5.20;99.90;;;5.34;65.88;102636.50;4969870;28;20204;-62
2022/01/12 01:15:08;;;;;;;4.20;2.75;;;5.20;99.90;;;5.34;66.09;102634.75;4969991;28;20207;-61
2022/01/12 01:25:47;;;;;;;3.23;2.97;;;5.20;99.90;;;5.35;66.87;102631.28;4974039;28;20869;-61
2022/01/12 01:28:16;;;;;;;2.53;2.33;;;5.20;99.90;;;5.33;66.94;102634.78;4973429;28;20995;-61
2022/01/12 01:30:45;;;;;;;2.53;2.33;;;5.20;99.90;;;5.37;66.45;102626.91;4975360;28;20590;-62
2022/01/12 01:33:16;;;;;;;4.22;2.67;;;5.20;99.90;;;5.40;66.50;102618.25;4974742;28;21302;-63
2022/01/12 01:35:53;;;;;;;2.47;2.10;;;5.30;99.90;;;5.32;67.29;102626.16;4962225;28;20220;-62
2022/01/12 01:38:20;;;;;;;2.60;2.40;;;5.20;99.90;;;5.30;67.54;102616.72;4973997;28;20639;-62
2022/01/12 01:40:48;;;;;;;2.78;2.55;;;5.10;99.90;;;5.27;67.65;102615.03;4974037;28;20206;-61
2022/01/12 01:53:59;;;;;;;3.05;2.80;;;5.00;99.90;;;5.10;67.76;102613.63;4974923;28;20204;-63
2022/01/12 01:56:26;;;;;;;2.95;2.22;;;4.90;99.90;;;5.03;67.51;102604.25;4973095;28;20310;-63
2022/01/12 01:58:53;;;;;;;2.85;2.60;;;4.90;99.90;;;5.05;67.50;102612.84;4975249;28;20246;-60
2022/01/12 02:01:20;;;;;;;3.33;2.70;;;4.90;99.90;;;5.03;66.49;102610.31;4974051;28;20199;-62
2022/01/12 02:03:47;;;;;;;2.53;2.35;;;4.90;99.90;;;5.05;66.73;102618.88;4971194;28;20211;-63
2022/01/12 02:06:16;;;;;;;3.92;2.70;;;4.90;99.90;;;5.06;66.78;102627.50;4987934;28;20211;-61
2022/01/12 02:08:43;;;;;;;2.90;2.63;;;4.90;99.90;;;5.03;66.70;102624.97;4979405;28;20654;-62
2022/01/12 02:11:10;;;;;;;2.45;2.25;;;4.80;99.90;;;5.01;67.00;102613.78;4975192;28;20629;-61
2022/01/12 02:13:37;;;;;;;1.38;1.20;;;4.90;99.90;;;4.98;66.88;102616.44;4971739;28;20204;-61
2022/01/12 02:16:04;;;;;;;1.95;1.83;;;4.80;99.90;;;4.88;66.74;102614.88;4974563;28;20224;-62
2022/01/12 02:18:53;;;;;;;2.65;2.40;;;4.70;99.90;;;4.85;66.83;102612.38;4973441;28;20224;-61
2022/01/12 02:40:42;;;;;;;2.70;2.50;;;4.50;99.90;;;4.63;67.01;102641.16;4976346;28;20200;-62
2022/01/12 02:53:41;;;;;;;2.65;2.45;;;4.40;99.90;;;4.59;66.88;102642.09;4973192;28;20216;-61
2022/01/12 02:56:19;;;;;;;3.20;2.65;;;4.40;99.90;;;4.56;67.25;102636.09;4973538;28;20219;-62
2022/01/12 02:58:48;;;;;;;2.80;2.60;;;4.40;99.90;;;4.54;66.87;102632.69;4986514;28;20223;-61
2022/01/12 03:04:07;;;;;;;2.92;2.55;;;4.30;99.90;;;4.47;67.40;102639.66;4984373;28;20204;-63
2022/01/12 03:06:38;;;;;;;3.55;2.63;;;4.30;99.90;;;4.46;67.81;102639.69;4972515;28;20288;-64
2022/01/12 03:09:09;;;;;;;2.90;2.70;;;4.20;99.90;;;4.46;67.45;102642.28;4971455;28;20904;-62
2022/01/12 03:11:38;;;;;;;2.28;2.08;;;4.30;99.90;;;4.38;67.08;102645.00;4973334;28;20211;-61
2022/01/12 03:14:05;;;;;;;3.47;2.33;;;4.20;99.90;;;4.36;66.30;102645.88;4973407;28;20287;-64
2022/01/12 03:16:32;;;;;;;3.42;2.63;;;4.20;99.90;;;4.36;66.54;102638.13;4972102;28;20227;-64
2022/01/12 03:19:02;;;;;;;2.88;2.50;;;4.10;99.90;;;4.39;66.34;102643.25;4971938;28;20331;-61
2022/01/12 03:21:33;;;;;;;3.55;2.78;;;4.20;99.90;;;4.37;66.19;102640.69;4986557;28;20208;-64
2022/01/12 03:24:00;;;;;;;2.75;2.05;;;4.20;99.90;;;4.26;66.46;102628.81;4972731;28;20200;-61
2022/01/12 03:26:30;;;;;;;3.33;2.60;;;4.10;99.90;;;4.20;66.34;102624.56;4969160;28;20200;-63
2022/01/12 03:28:58;;;;;;;3.33;3.00;;;4.00;99.90;;;4.16;66.43;102634.97;4953664;28;20221;-64
2022/01/12 03:31:30;;;;;;;2.90;2.70;;;3.90;99.90;;;4.15;66.78;102638.44;4965260;28;20208;-62
2022/01/12 03:34:21;;;;;;;3.47;3.08;;;3.90;99.90;;;4.13;66.96;102647.94;4972067;28;20212;-61
2022/01/12 03:39:21;;;;;;;4.20;3.03;;;3.90;99.90;;;4.08;66.69;102662.66;4970716;28;20266;-63
2022/01/12 03:41:48;;;;;;;5.30;3.95;;;3.90;99.90;;;4.04;67.14;102672.16;4970925;28;20204;-65
2022/01/12 03:44:17;;;;;;;3.58;2.80;;;3.80;99.90;;;4.01;68.05;102656.69;4972728;28;20574;-62
2022/01/12 03:46:50;;;;;;;6.28;3.40;;;3.80;99.90;;;4.02;67.89;102657.56;4971529;28;20278;-62
2022/01/12 03:49:19;;;;;;;4.38;2.85;;;3.80;99.90;;;3.98;68.00;102671.41;4970673;28;20619;-62
2022/01/12 03:51:48;;;;;;;2.80;2.60;;;3.80;99.90;;;3.94;67.78;102663.66;4971385;28;20204;-61
2022/01/12 03:54:17;;;;;;;2.28;2.17;;;3.80;99.90;;;3.92;67.91;102651.63;4972487;28;20215;-63
2022/01/12 03:56:45;;;;;;;3.38;2.05;;;3.70;99.90;;;3.88;67.50;102642.22;4970095;28;20267;-62
2022/01/12 03:59:12;;;;;;;4.03;2.80;;;3.70;99.90;;;3.82;68.03;102640.59;4972297;28;20232;-63
2022/01/12 04:01:39;;;;;;;3.13;2.85;;;3.60;99.90;;;3.85;67.51;102662.94;4972128;28;20202;-61
2022/01/12 04:04:17;;;;;;;2.85;2.63;;;3.70;99.90;;;3.85;68.00;102670.69;4970840;28;20200;-60
2022/01/12 04:09:46;;;;;;;3.00;2.70;;;3.70;99.90;;;3.83;68.15;102687.94;4971285;28;20297;-62
2022/01/12 04:12:15;;;;;;;2.55;2.35;;;3.60;99.90;;;3.85;67.88;102696.53;4969070;28;20255;-64
2022/01/12 04:14:43;;;;;;;3.90;2.65;;;3.70;99.90;;;3.86;68.54;102688.75;4947345;28;20900;-62
2022/01/12 04:17:10;;;;;;;4.07;3.10;;;3.70;99.90;;;3.93;67.62;102700.72;4971106;28;20651;-61
2022/01/12 04:19:37;;;;;;;2.70;2.50;;;3.80;99.90;;;3.96;68.11;102702.41;4972785;28;20222;-65
2022/01/12 04:23:16;;;;;;;2.97;2.50;;;3.80;99.90;;;3.97;67.97;102701.53;4971357;28;20204;-61
2022/01/12 04:24:55;;;;;;;2.83;2.58;;;3.80;99.90;;;3.94;67.16;102679.16;4971822;28;20274;-61
2022/01/12 04:27:22;;;;;;;2.92;2.72;;;3.80;99.90;;;3.96;67.31;102699.84;4970648;28;20200;-60
2022/01/12 04:29:49;;;;;;;4.95;3.30;;;3.80;99.90;;;3.97;67.11;102696.34;4972093;28;20626;-63
2022/01/12 04:32:16;;;;;;;2.60;2.33;;;3.80;99.90;;;3.95;67.37;102705.84;4970644;28;20215;-62
2022/01/12 04:34:43;;;;;;;8.10;3.40;;;3.80;99.90;;;3.89;67.69;102693.03;4971677;28;20663;-61
2022/01/12 04:37:10;;;;;;;3.80;2.60;;;3.70;99.90;;;3.86;67.33;102686.16;4969889;28;20226;-63
2022/01/12 04:39:37;;;;;;;3.28;2.70;;;3.70;99.90;;;3.87;67.56;102681.84;4971287;28;20206;-61
2022/01/12 04:42:05;;;;;;;3.90;2.80;;;3.70;99.90;;;3.84;67.21;102687.91;4972946;28;20232;-61
2022/01/12 04:44:32;;;;;;;3.72;2.85;;;3.60;99.90;;;3.77;67.89;102682.81;4970918;28;20204;-63
2022/01/12 04:47:08;;;;;;;4.10;2.83;;;3.60;99.90;;;3.75;67.88;102684.56;4971253;28;20197;-61
2022/01/12 04:52:05;;;;;;;5.40;3.33;;;3.50;99.90;;;3.66;69.22;102692.44;4971422;28;20204;-63
2022/01/12 04:54:32;;;;;;;3.63;3.17;;;3.50;99.90;;;3.58;69.64;102707.13;4970855;28;20219;-61
2022/01/12 04:56:59;;;;;;;6.00;3.78;;;3.30;99.90;;;3.52;70.38;102700.31;4971204;28;20224;-61
2022/01/12 04:59:26;;;;;;;4.88;3.28;;;3.30;99.90;;;3.48;70.78;102697.78;4970730;28;20227;-62
2022/01/12 05:01:58;;;;;;;4.60;3.30;;;3.30;99.90;;;3.44;71.01;102696.09;4985834;28;20204;-63
2022/01/12 05:10:01;;;;;;;2.88;2.65;;;3.20;99.90;;;3.36;71.64;102695.31;4971536;28;20208;-62
2022/01/12 05:15:21;;;;;;;3.25;2.80;;;3.10;99.90;;;3.30;72.13;102697.97;4971395;28;20210;-61
2022/01/12 05:17:48;;;;;;;4.60;2.78;;;3.10;99.90;;;3.29;72.28;102693.66;4970195;28;20231;-63
2022/01/12 05:20:15;;;;;;;3.35;2.58;;;3.10;99.90;;;3.25;71.59;102700.59;4969598;28;20204;-63
2022/01/12 05:22:42;;;;;;;4.10;2.78;;;3.10;99.90;;;3.23;71.94;102692.00;4970070;28;20226;-62
2022/01/12 05:25:09;;;;;;;4.38;2.97;;;3.10;99.90;;;3.21;72.40;102682.56;4970379;28;20201;-60
2022/01/12 05:27:36;;;;;;;5.43;2.80;;;3.10;99.90;;;3.20;72.76;102691.16;4970192;28;20262;-61
2022/01/12 05:30:04;;;;;;;3.53;2.55;;;3.00;99.90;;;3.17;72.21;102686.91;4971812;28;20206;-63
2022/01/12 05:32:31;;;;;;;4.10;2.83;;;3.00;99.90;;;3.13;73.19;102692.97;4952397;28;20247;-64
2022/01/12 05:35:01;;;;;;;6.10;3.00;;;3.00;99.90;;;3.13;73.25;102691.22;4984935;28;20212;-62
2022/01/12 05:37:29;;;;;;;3.50;3.00;;;3.00;99.90;;;3.11;73.32;102698.09;4969570;28;20311;-61
2022/01/12 05:39:59;;;;;;;6.00;2.90;;;3.00;99.90;;;3.08;73.76;102718.78;4969669;28;20290;-63
2022/01/12 05:42:27;;;;;;;10.18;3.60;;;2.90;99.90;;;3.05;73.60;102700.75;4970032;28;20204;-63
2022/01/12 05:44:54;;;;;;;3.88;2.72;;;2.90;99.90;;;3.04;73.65;102695.59;4970618;28;20724;-63
2022/01/12 05:49:59;;;;;;;2.85;2.60;;;2.90;99.90;;;3.00;73.49;102676.69;4971115;28;20207;-63
2022/01/12 05:52:26;;;;;;;4.47;2.90;;;2.80;99.90;;;2.96;73.40;102687.09;4969436;28;20206;-62
2022/01/12 05:54:53;;;;;;;5.45;3.35;;;2.80;99.90;;;2.93;73.38;102693.13;4970449;28;20208;-62
2022/01/12 05:57:20;;;;;;;3.55;2.75;;;2.80;99.90;;;2.95;73.87;102686.22;4973883;28;20220;-62
2022/01/12 05:59:47;;;;;;;2.70;2.50;;;2.80;99.90;;;2.92;74.24;102680.22;4971349;28;20201;-64
2022/01/12 06:02:14;;;;;;;4.30;3.00;;;2.80;99.90;;;2.89;74.71;102690.56;4969686;28;20228;-61
2022/01/12 06:04:43;;;;;;;4.82;3.20;;;2.70;99.90;;;2.86;75.05;102695.75;4971687;28;20235;-63
2022/01/12 06:07:10;;;;;;;9.48;3.83;;;2.60;99.90;;;2.82;75.85;102700.06;4973580;28;20208;-64
2022/01/12 06:09:37;;;;;;;4.25;2.75;;;2.70;99.90;;;2.80;75.42;102704.38;4973935;28;20204;-62
2022/01/12 06:12:04;;;;;;;3.13;2.83;;;2.60;99.90;;;2.76;76.15;102694.97;4973590;28;20196;-63
2022/01/12 06:14:31;;;;;;;2.85;2.50;;;2.60;99.90;;;2.76;75.58;102701.84;4972785;28;20216;-63
2022/01/12 06:16:58;;;;;;;4.57;3.05;;;2.60;99.90;;;2.75;75.97;102710.41;4972943;28;20220;-63
2022/01/12 06:19:25;;;;;;;4.53;2.90;;;2.60;99.90;;;2.76;75.39;102719.88;4972656;28;20232;-62
2022/01/12 06:21:52;;;;;;;5.63;3.53;;;2.60;99.90;;;2.76;75.54;102725.91;4973182;28;20332;-62
2022/01/12 06:24:20;;;;;;;5.20;3.25;;;2.60;99.90;;;2.77;75.71;102729.34;4972999;28;20211;-61
2022/01/12 06:26:47;;;;;;;3.90;2.90;;;2.60;99.90;;;2.80;75.28;102731.88;4974198;28;20204;-64
2022/01/12 06:31:52;;;;;;;4.90;2.97;;;2.70;99.90;;;2.82;74.68;102748.19;4973123;28;20271;-64
2022/01/12 06:34:22;;;;;;;4.03;3.53;;;2.70;99.90;;;2.82;74.74;102759.38;4973391;28;20207;-62
2022/01/12 06:36:49;;;;;;;4.60;3.58;;;2.70;99.90;;;2.82;75.43;102764.53;4974419;28;20223;-63
2022/01/12 06:39:20;;;;;;;5.82;3.33;;;2.70;99.90;;;2.80;76.25;102760.25;4971901;28;20234;-63
2022/01/12 06:41:47;;;;;;;4.95;3.15;;;2.60;99.90;;;2.76;76.64;102759.41;4964986;28;20196;-64
2022/01/12 06:44:16;;;;;;;4.78;3.22;;;2.60;99.90;;;2.76;76.50;102764.56;4973614;28;20592;-64
2022/01/12 06:46:44;;;;;;;4.60;3.25;;;2.60;99.90;;;2.71;76.51;102756.00;4953625;29;20215;-63
2022/01/12 06:49:12;;;;;;;4.75;3.30;;;2.60;99.90;;;2.69;76.99;102751.72;4977085;28;20900;-63
2022/01/12 06:51:39;;;;;;;4.45;3.83;;;2.60;99.90;;;2.69;76.82;102767.19;4973387;28;20196;-64
2022/01/12 06:54:06;;;;;;;5.55;4.40;;;2.50;99.90;;;2.69;77.06;102768.03;4973934;28;20294;-63
2022/01/12 06:56:33;;;;;;;7.63;3.97;;;2.60;99.90;;;2.66;78.08;102775.78;4969097;28;20222;-63
2022/01/12 06:59:02;;;;;;;4.95;3.95;;;2.50;99.90;;;2.66;78.09;102782.69;4973366;28;20216;-64
2022/01/12 07:01:29;;;;;;;5.45;3.67;;;2.50;99.90;;;2.61;78.05;102787.84;4971496;28;20201;-63
2022/01/12 07:03:56;;;;;;;8.68;4.22;;;2.50;99.90;;;2.56;78.44;102791.31;4972864;28;20208;-61
2022/01/12 07:06:24;;;;;;;6.47;4.50;;;2.40;99.90;;;2.51;79.02;102793.94;4971988;28;20570;-62
2022/01/12 07:08:51;;;;;;;12.80;5.05;;;2.30;99.90;;;2.52;79.15;102787.91;4974317;28;20219;-64
2022/01/12 07:11:18;;;;;;;6.85;3.75;;;2.40;99.90;;;2.56;78.44;102792.16;4972057;28;20686;-61
2022/01/12 07:13:45;;;;;;;9.32;4.80;;;2.40;99.90;;;2.55;78.63;102789.59;4967788;28;20204;-62
2022/01/12 07:16:12;;;;;;;5.30;3.67;;;2.40;99.90;;;2.59;78.42;102784.44;4971685;28;20294;-61
2022/01/12 07:18:39;;;;;;;5.65;3.70;;;2.50;99.90;;;2.60;78.56;102773.25;5000233;23;20251;-69
2022/01/12 07:21:06;;;;;;;7.70;3.83;;;2.50;99.90;;;2.64;77.99;102774.94;4973495;28;20204;-69
2022/01/12 07:23:33;;;;;;;4.40;2.92;;;2.50;99.90;;;2.67;78.45;102780.09;4966005;28;20201;-69
2022/01/12 07:26:00;;;;;;;5.55;3.70;;;2.60;99.90;;;2.69;78.21;102780.06;4952692;28;20201;-69
2022/01/12 07:28:27;;;;;;;5.35;4.30;;;2.60;99.90;;;2.71;78.67;102791.22;4964034;28;20314;-69
2022/01/12 07:30:54;;;;;;;6.20;4.20;;;2.70;99.90;;;2.71;78.79;102796.38;4951746;29;20684;-70
2022/01/12 07:33:22;;;;;;;8.15;3.80;;;2.60;99.90;;;2.76;79.17;102805.81;4952926;28;20201;-69
2022/01/12 07:35:49;;;;;;;5.53;3.40;;;2.70;99.90;;;2.80;78.89;102807.50;4953234;28;20242;-69
2022/01/12 07:38:16;;;;;;;7.03;4.50;;;2.70;99.90;;;2.84;78.16;102816.94;4953353;28;20268;-70
2022/01/12 07:40:43;;;;;;;11.23;5.63;;;2.80;99.90;;;2.85;77.90;102818.66;4949010;29;20573;-69
2022/01/12 07:43:11;;;;;;;9.43;5.68;;;2.80;99.90;;;2.85;77.69;102818.66;4956018;28;20239;-69
2022/01/12 07:45:38;;;;;;;10.70;5.88;;;2.80;99.90;;;2.82;77.59;102830.72;4970068;28;20636;-69
2022/01/12 07:48:05;;;;;;;7.82;5.25;;;2.70;99.90;;;2.82;77.81;102835.88;4949266;28;20225;-69
2022/01/12 07:50:32;;;;;;;5.43;3.78;;;2.70;99.90;;;2.72;78.48;102823.88;4953546;28;20218;-68
2022/01/12 07:52:59;;;;;;;6.15;4.32;;;2.60;99.90;;;2.68;78.46;102828.22;4952301;28;20208;-69
2022/01/12 07:55:27;;;;;;;7.13;4.40;;;2.60;99.90;;;2.73;78.89;102834.19;4970716;28;20735;-69
2022/01/12 07:57:53;;;;;;;6.70;4.35;;;2.60;99.90;;;2.75;79.06;102839.31;4953843;28;20231;-68
2022/01/12 08:00:21;;;;;;;4.30;3.90;;;2.70;99.90;;;2.78;78.39;102858.22;4970157;28;20215;-68
2022/01/12 08:02:50;;;;;;;5.70;4.38;;;2.70;99.90;;;2.83;78.40;102858.22;4950218;28;20205;-69
2022/01/12 08:05:18;;;;;;;5.10;4.03;;;2.80;99.90;;;2.85;77.97;102859.94;4953814;28;20562;-69
2022/01/12 08:07:47;;;;;;;6.45;4.07;;;2.80;99.90;;;2.89;78.75;102859.03;4950596;28;20295;-69
2022/01/12 08:10:15;;;;;;;5.28;4.50;;;2.90;99.90;;;2.96;78.57;102871.03;4951604;28;20205;-68
2022/01/12 08:12:43;;;;;;;6.85;3.50;;;2.90;99.90;;;3.09;77.66;102877.84;4952307;28;20223;-69
2022/01/12 08:15:10;;;;;;;7.55;3.92;;;3.10;99.90;;;3.19;77.03;102875.22;4952671;28;20215;-70
2022/01/12 08:17:38;;;;;;;5.18;3.75;;;3.20;99.90;;;3.25;76.62;102882.91;4952125;28;20221;-69
2022/01/12 08:20:11;;;;;;;4.60;3.40;;;3.20;99.90;;;3.52;76.09;102882.72;4957851;28;20224;-69
2022/01/12 08:22:39;;;;;;;3.35;3.05;;;3.50;99.90;;;4.03;74.63;102884.88;4951332;28;20291;-69
2022/01/12 08:25:09;;;;;;;3.83;3.10;;;4.10;99.90;;;4.33;72.27;102874.22;4941546;28;20685;-69
2022/01/12 08:27:39;;;;;;;5.30;3.75;;;4.50;99.90;;;4.55;71.50;102880.88;4952451;28;20208;-69
2022/01/12 08:30:16;;;;;;;4.63;3.40;;;4.70;99.90;;;5.83;69.04;102882.50;4951229;28;20256;-69
2022/01/12 08:32:45;;;;;;;6.03;4.40;;;6.00;99.90;;;7.59;63.22;102883.22;4951163;29;20551;-69
2022/01/12 08:35:13;;;;;;;7.03;4.97;;;8.00;99.90;;;8.93;57.48;102890.03;4950521;28;20242;-68
2022/01/12 08:37:40;;;;;;;8.97;5.27;;;9.40;99.90;;;10.68;53.15;102904.19;4950908;28;20687;-70
2022/01/12 08:40:09;;;;;;;7.00;5.20;;;11.40;97.90;;;12.67;48.67;102905.63;4949814;28;20623;-70
2022/01/12 08:42:36;;;;;;;12.33;6.53;;;13.50;91.30;;;14.37;44.65;102902.56;4951842;28;20644;-70
2022/01/12 08:45:05;;;;;;;9.03;6.60;;;15.40;80.00;;;15.96;40.36;102909.47;4950902;28;20623;-70
2022/01/12 08:47:32;;;;;;;15.27;7.37;;;17.10;68.00;;;17.16;37.66;102906.44;4958701;28;21183;-70
2022/01/12 08:49:59;;;;;;;9.23;6.90;;;18.70;60.30;;;18.00;35.07;102913.19;4959494;28;21234;-68
2022/01/12 08:52:29;;;;;;;8.27;6.23;;;19.70;55.20;;;19.03;33.65;102909.47;4950925;28;20709;-70
2022/01/12 08:54:56;;;;;;;9.70;6.63;;;20.60;52.40;;;19.72;32.01;102903.47;4949201;28;20654;-67
2022/01/12 08:57:23;;;;;;;6.97;6.20;;;21.20;50.00;;;20.10;31.28;102893.47;4949921;28;20659;-70
2022/01/12 08:59:50;;;;;;;7.53;5.90;;;21.70;48.60;;;19.27;31.48;102897.09;4935712;29;20666;-67
2022/01/12 09:02:17;;;;;;;7.43;5.70;;;20.90;48.10;;;17.35;33.82;102896.38;4951952;28;20627;-69
2022/01/12 09:04:45;;;;;;;7.70;6.00;;;18.50;50.50;;;15.37;37.19;102903.22;4963588;28;20643;-70
2022/01/12 09:07:11;;;;;;;7.33;5.50;;;16.00;54.40;;;13.55;39.86;102913.69;4951183;28;21306;-70
2022/01/12 09:09:38;;;;;;;8.03;5.70;;;13.90;58.90;;;12.23;42.41;102929.38;4949050;28;21786;-69
2022/01/12 09:12:07;;;;;;;7.30;5.57;;;12.40;63.50;;;11.35;45.37;102918.19;4949666;28;20643;-69
2022/01/12 09:14:34;;;;;;;8.00;5.30;;;11.40;68.80;;;11.79;45.61;102919.06;4951315;28;21222;-69
2022/01/12 09:17:01;;;;;;;6.10;5.40;;;12.20;70.30;;;12.22;43.48;102934.69;4950699;28;20650;-70
2022/01/12 09:19:29;;;;;;;6.90;5.40;;;13.10;67.30;;;11.55;44.19;102941.78;4948732;28;20655;-69
2022/01/12 09:21:56;;;;;;;7.20;4.77;;;12.30;68.70;;;10.82;46.19;102939.34;4948069;28;20632;-69
2022/01/12 09:24:23;;;;;;;8.10;4.57;;;11.20;72.70;;;10.00;48.49;102924.84;4952140;28;20620;-69
2022/01/12 09:26:50;;;;;;;5.00;3.70;;;10.20;77.20;;;9.34;49.75;102923.50;4950736;28;20640;-70
2022/01/12 09:29:18;;;;;;;5.00;4.37;;;9.50;83.40;;;8.90;51.22;102928.31;4951035;28;20651;-70
2022/01/12 09:31:46;;;;;;;6.47;4.70;;;9.00;89.40;;;8.48;53.09;102930.34;4951298;28;20680;-70
2022/01/12 09:46:27;;;;;;;5.85;4.65;;;8.40;93.50;;;7.90;54.70;102945.72;5138226;27;1248239;-72
2022/01/12 09:48:57;;;;;;;5.83;3.83;;;8.10;97.60;;;7.50;54.54;102932.78;5167604;27;20397;-71
2022/01/12 09:51:24;;;;;;;7.30;4.67;;;7.80;97.30;;;7.35;54.42;102922.75;5152940;27;20616;-73
2022/01/12 09:53:52;;;;;;;5.47;3.83;;;7.40;98.00;;;7.29;54.88;102922.88;5160868;27;20658;-73
2022/01/12 09:56:24;;;;;;;4.47;4.03;;;7.30;98.50;;;7.21;55.44;102917.88;5169125;27;20749;-72
2022/01/12 09:58:54;;;;;;;4.23;3.70;;;7.20;99.00;;;7.20;55.36;102912.72;5151962;27;20589;-73
2022/01/12 10:01:39;;;;;;;5.33;3.37;;;7.20;99.40;;;7.21;55.91;102927.41;5140600;27;21220;-71
2022/01/12 10:04:16;;;;;;;4.77;3.63;;;7.20;99.80;;;7.12;55.95;102935.38;5131550;27;20622;-72
2022/01/12 10:06:53;;;;;;;8.70;4.17;;;7.20;99.90;;;7.10;56.50;102935.41;5147222;27;20758;-72
2022/01/12 10:09:31;;;;;;;5.30;4.00;;;7.20;99.90;;;7.09;57.07;102925.94;5131587;27;20584;-70
2022/01/12 10:12:00;;;;;;;6.07;4.40;;;7.20;99.90;;;6.97;57.30;102931.38;5151208;27;21177;-71
2022/01/12 10:14:49;;;;;;;5.83;4.60;;;7.00;99.90;;;6.91;57.50;102937.53;5156877;27;21287;-69
2022/01/12 10:17:18;;;;;;;7.70;4.70;;;6.90;99.90;;;6.81;57.89;102941.22;5169305;27;20640;-73
2022/01/12 10:19:46;;;;;;;6.53;5.00;;;6.70;99.90;;;6.66;58.43;102931.13;5165871;27;20754;-69
2022/01/12 10:22:15;;;;;;;10.03;4.93;;;6.60;99.90;;;6.55;58.96;102933.09;5149026;27;20202;-69
2022/01/12 10:24:45;;;;;;;6.47;4.83;;;6.50;99.90;;;6.49;59.86;102942.72;5149038;27;20731;-71
2022/01/12 10:27:19;;;;;;;9.17;5.17;;;6.40;99.90;;;6.42;59.49;102947.16;5167176;27;20737;-70
2022/01/12 10:30:00;;;;;;;7.97;5.03;;;6.40;99.90;;;6.26;60.13;102951.75;5147615;27;20715;-70
2022/01/12 10:32:27;;;;;;;6.40;4.80;;;6.20;99.90;;;6.23;60.33;102956.13;5128550;27;20650;-67
2022/01/12 10:34:57;;;;;;;7.73;4.93;;;6.10;99.90;;;6.26;60.98;102954.34;5147639;27;21223;-66
2022/01/12 10:37:26;;;;;;;7.47;4.57;;;6.20;99.90;;;6.28;60.13;102954.34;5148481;27;20639;-68
2022/01/12 10:39:55;;;;;;;6.70;4.30;;;6.20;99.90;;;6.28;60.77;102949.97;5151338;27;20748;-70
2022/01/12 10:42:27;;;;;;;9.00;5.10;;;6.20;99.90;;;6.24;60.75;102944.88;5148128;27;20611;-71
2022/01/12 10:45:01;;;;;;;13.60;4.90;;;6.10;99.90;;;6.06;60.51;102946.06;5148935;27;20647;-71
2022/01/12 10:47:31;;;;;;;6.20;4.27;;;6.00;99.90;;;6.10;60.60;102945.13;5127774;27;20734;-70
2022/01/12 10:50:04;;;;;;;5.20;3.50;;;6.10;99.90;;;6.04;60.52;102937.47;5135670;27;20634;-71
2022/01/12 10:52:39;;;;;;;6.00;3.87;;;6.00;99.90;;;5.99;60.47;102928.91;5122206;27;20622;-70
2022/01/12 10:55:10;;;;;;;6.60;4.93;;;5.90;99.90;;;5.98;60.51;102926.34;5118888;27;20657;-73
2022/01/12 10:57:44;;;;;;;9.43;4.67;;;5.90;99.90;;;5.99;60.92;102918.53;5127521;27;21267;-72
2022/01/12 11:00:21;;;;;;;5.57;3.58;;;5.90;99.90;;;5.64;62.33;102913.03;5143811;27;20609;-69
2022/01/12 11:02:54;;;;;;;2.17;1.70;;;5.60;99.90;;;5.40;63.55;102918.56;5121247;27;20201;-70
2022/01/12 11:05:25;;;;;;;3.53;2.25;;;5.30;99.90;;;5.31;63.72;102918.69;5174793;22;20231;-63
2022/01/12 11:07:53;;;;;;;2.42;2.17;;;5.10;99.90;;;5.32;64.86;102917.84;5071182;28;20196;-63
2022/01/12 11:10:21;;;;;;;3.63;2.60;;;5.20;99.90;;;5.31;65.41;102922.16;5052154;28;20717;-63
2022/01/12 11:12:50;;;;;;;0.63;0.63;;;5.20;99.90;;;5.29;65.57;102912.69;5063637;28;20193;-63
2022/01/12 11:15:20;;;;;;;8.45;4.40;;;5.10;99.90;;;5.34;65.08;102910.91;5055731;28;20315;-62
2022/01/12 11:17:51;;;;;;;7.65;4.30;;;5.20;99.90;;;5.41;64.76;102908.19;5055704;28;20204;-62
2022/01/12 11:20:28;;;;;;;7.63;4.35;;;5.30;99.90;;;5.46;63.93;102908.13;5051323;28;20619;-65
2022/01/12 11:23:12;;;;;;;13.43;7.25;;;5.40;99.90;;;5.53;63.02;102903.72;5055321;28;20196;-63
2022/01/12 11:25:49;;;;;;;15.95;8.65;;;5.50;99.90;;;5.50;63.21;102899.44;5071736;28;20597;-62
2022/01/12 11:28:17;;;;;;;19.58;10.52;;;5.40;99.90;;;5.51;62.87;102896.81;5072861;28;20196;-64
2022/01/12 11:30:50;;;;;;;5.90;4.35;;;5.40;99.90;;;5.49;63.00;102906.34;5072686;28;20201;-64
2022/01/12 11:33:35;;;;;;;4.45;2.10;;;5.40;99.90;;;5.45;61.87;102906.44;5072517;28;20220;-64
2022/01/12 11:36:14;;;;;;;2.80;2.53;;;5.40;99.90;;;5.38;62.56;102915.16;5053014;28;20225;-62
2022/01/12 11:38:47;;;;;;;5.82;3.47;;;5.20;99.90;;;5.28;62.68;102918.75;5071357;28;20669;-63
2022/01/12 11:41:28;;;;;;;6.20;3.53;;;5.20;99.90;;;5.30;63.10;102924.78;5053356;28;20235;-62
2022/01/12 11:44:16;;;;;;;7.20;3.47;;;5.10;99.90;;;5.35;62.99;102922.94;5073109;28;20287;-62
2022/01/12 11:46:51;;;;;;;8.18;4.85;;;5.20;99.90;;;5.35;63.24;102925.53;5072714;28;20597;-63
2022/01/12 11:49:32;;;;;;;5.82;4.10;;;5.20;99.90;;;5.40;63.07;102921.16;5071706;28;20205;-64
2022/01/12 11:52:15;;;;;;;4.75;3.30;;;5.30;99.90;;;5.48;62.92;102921.91;5072813;28;20295;-65
2022/01/12 11:54:45;;;;;;;5.90;3.47;;;5.40;99.90;;;5.53;62.53;102920.13;5072031;28;20581;-61
2022/01/12 11:57:18;;;;;;;4.05;3.40;;;5.50;99.90;;;5.58;62.08;102920.88;5071727;28;20757;-62
2022/01/12 12:00:01;;;;;;;9.23;5.20;;;5.50;99.90;;;5.55;62.68;102922.66;5072506;28;20287;-62
2022/01/12 12:02:39;;;;;;;8.20;4.80;;;5.40;99.90;;;5.58;62.33;102920.88;5072659;28;20206;-62
2022/01/12 12:05:28;;;;;;;6.82;5.00;;;5.40;99.90;;;5.64;62.43;102918.22;5054324;28;20212;-62
2022/01/12 12:08:03;;;;;;;6.78;4.30;;;5.50;99.90;;;5.71;62.05;102914.63;5054652;28;20291;-64
2022/01/12 12:10:34;;;;;;;6.35;4.53;;;5.60;99.90;;;5.77;62.09;102911.94;5072479;28;20288;-62